sensor_id;sensor_type;location;lat;lon;timestamp;P1;durP1;ratioP1;P2;durP2;ratioP2
46116;SDS011;32591;48.102;11.772;2023-04-24T00:00:44;1.95;;;0.95;;
46116;SDS011;32591;48.102;11.772;2023-04-24T00:03:11;1.33;;;0.82;;
46116;SDS011;32591;48.102;11.772;2023-04-24T00:05:38;2.63;;;1.20;;
46116;SDS011;32591;48.102;11.772;2023-04-24T00:08:06;2.00;;;0.85;;
46116;SDS011;32591;48.102;11.772;2023-04-24T00:10:33;2.70;;;0.70;;
46116;SDS011;32591;48.102;11.772;2023-04-24T00:13:00;2.72;;;0.80;;
46116;SDS011;32591;48.102;11.772;2023-04-24T00:15:28;2.20;;;0.85;;
46116;SDS011;32591;48.102;11.772;2023-04-24T00:17:58;2.25;;;0.95;;
46116;SDS011;32591;48.102;11.772;2023-04-24T00:20:26;2.08;;;0.93;;
46116;SDS011;32591;48.102;11.772;2023-04-24T00:22:54;1.73;;;0.90;;
46116;SDS011;32591;48.102;11.772;2023-04-24T00:25:21;1.33;;;0.80;;
46116;SDS011;32591;48.102;11.772;2023-04-24T00:27:48;1.52;;;0.80;;
46116;SDS011;32591;48.102;11.772;2023-04-24T00:30:15;2.20;;;1.10;;
46116;SDS011;32591;48.102;11.772;2023-04-24T00:32:43;1.45;;;0.88;;
46116;SDS011;32591;48.102;11.772;2023-04-24T00:35:11;1.20;;;0.80;;
46116;SDS011;32591;48.102;11.772;2023-04-24T00:37:38;1.15;;;0.50;;
46116;SDS011;32591;48.102;11.772;2023-04-24T00:40:05;2.25;;;0.60;;
46116;SDS011;32591;48.102;11.772;2023-04-24T00:42:33;0.60;;;0.60;;
46116;SDS011;32591;48.102;11.772;2023-04-24T00:45:00;1.25;;;0.70;;
46116;SDS011;32591;48.102;11.772;2023-04-24T00:47:29;2.85;;;0.70;;
46116;SDS011;32591;48.102;11.772;2023-04-24T00:49:57;1.27;;;0.65;;
46116;SDS011;32591;48.102;11.772;2023-04-24T00:52:24;0.60;;;0.60;;
46116;SDS011;32591;48.102;11.772;2023-04-24T00:54:53;1.23;;;0.73;;
46116;SDS011;32591;48.102;11.772;2023-04-24T00:57:20;0.90;;;0.60;;
46116;SDS011;32591;48.102;11.772;2023-04-24T00:59:48;0.70;;;0.50;;
46116;SDS011;32591;48.102;11.772;2023-04-24T01:02:16;0.63;;;0.50;;
46116;SDS011;32591;48.102;11.772;2023-04-24T01:04:43;1.00;;;0.60;;
46116;SDS011;32591;48.102;11.772;2023-04-24T01:07:11;0.90;;;0.60;;
46116;SDS011;32591;48.102;11.772;2023-04-24T01:09:38;1.17;;;0.60;;
46116;SDS011;32591;48.102;11.772;2023-04-24T01:12:07;0.93;;;0.68;;
46116;SDS011;32591;48.102;11.772;2023-04-24T01:14:34;0.82;;;0.60;;
46116;SDS011;32591;48.102;11.772;2023-04-24T01:17:01;1.67;;;0.60;;
46116;SDS011;32591;48.102;11.772;2023-04-24T01:19:28;1.83;;;0.73;;
46116;SDS011;32591;48.102;11.772;2023-04-24T01:21:56;2.63;;;0.80;;
46116;SDS011;32591;48.102;11.772;2023-04-24T01:24:29;2.28;;;0.77;;
46116;SDS011;32591;48.102;11.772;2023-04-24T01:26:56;1.98;;;1.23;;
46116;SDS011;32591;48.102;11.772;2023-04-24T01:29:23;1.35;;;0.40;;
46116;SDS011;32591;48.102;11.772;2023-04-24T01:31:50;2.53;;;0.68;;
46116;SDS011;32591;48.102;11.772;2023-04-24T01:34:18;0.22;;;0.22;;
46116;SDS011;32591;48.102;11.772;2023-04-24T01:36:45;0.65;;;0.47;;
46116;SDS011;32591;48.102;11.772;2023-04-24T01:39:12;1.05;;;0.52;;
46116;SDS011;32591;48.102;11.772;2023-04-24T01:41:42;1.48;;;0.45;;
46116;SDS011;32591;48.102;11.772;2023-04-24T01:44:09;0.40;;;0.40;;
46116;SDS011;32591;48.102;11.772;2023-04-24T01:46:36;0.38;;;0.30;;
46116;SDS011;32591;48.102;11.772;2023-04-24T01:49:03;0.88;;;0.50;;
46116;SDS011;32591;48.102;11.772;2023-04-24T01:51:30;0.65;;;0.40;;
46116;SDS011;32591;48.102;11.772;2023-04-24T01:53:57;0.40;;;0.30;;
46116;SDS011;32591;48.102;11.772;2023-04-24T01:56:24;0.30;;;0.30;;
46116;SDS011;32591;48.102;11.772;2023-04-24T01:58:56;1.08;;;0.50;;
46116;SDS011;32591;48.102;11.772;2023-04-24T02:01:24;0.50;;;0.38;;
46116;SDS011;32591;48.102;11.772;2023-04-24T02:06:17;1.17;;;0.43;;
46116;SDS011;32591;48.102;11.772;2023-04-24T02:08:44;0.65;;;0.55;;
46116;SDS011;32591;48.102;11.772;2023-04-24T02:11:11;2.00;;;0.52;;
46116;SDS011;32591;48.102;11.772;2023-04-24T02:13:38;1.33;;;0.70;;
46116;SDS011;32591;48.102;11.772;2023-04-24T02:16:07;0.50;;;0.50;;
46116;SDS011;32591;48.102;11.772;2023-04-24T02:18:34;0.40;;;0.40;;
46116;SDS011;32591;48.102;11.772;2023-04-24T02:21:01;0.73;;;0.40;;
46116;SDS011;32591;48.102;11.772;2023-04-24T02:23:28;0.60;;;0.47;;
46116;SDS011;32591;48.102;11.772;2023-04-24T02:25:55;0.80;;;0.45;;
46116;SDS011;32591;48.102;11.772;2023-04-24T02:28:22;0.55;;;0.35;;
46116;SDS011;32591;48.102;11.772;2023-04-24T02:30:49;1.75;;;0.40;;
46116;SDS011;32591;48.102;11.772;2023-04-24T02:33:18;0.55;;;0.40;;
46116;SDS011;32591;48.102;11.772;2023-04-24T02:35:45;1.00;;;0.40;;
46116;SDS011;32591;48.102;11.772;2023-04-24T02:38:11;1.77;;;0.50;;
46116;SDS011;32591;48.102;11.772;2023-04-24T02:40:38;0.85;;;0.47;;
46116;SDS011;32591;48.102;11.772;2023-04-24T02:43:05;1.75;;;0.43;;
46116;SDS011;32591;48.102;11.772;2023-04-24T02:45:32;0.55;;;0.40;;
46116;SDS011;32591;48.102;11.772;2023-04-24T02:47:59;2.80;;;0.40;;
46116;SDS011;32591;48.102;11.772;2023-04-24T02:50:28;1.85;;;0.38;;
46116;SDS011;32591;48.102;11.772;2023-04-24T02:52:54;0.50;;;0.30;;
46116;SDS011;32591;48.102;11.772;2023-04-24T02:55:22;0.70;;;0.43;;
46116;SDS011;32591;48.102;11.772;2023-04-24T02:57:49;1.02;;;0.22;;
46116;SDS011;32591;48.102;11.772;2023-04-24T03:00:16;1.00;;;0.70;;
46116;SDS011;32591;48.102;11.772;2023-04-24T03:02:43;0.35;;;0.30;;
46116;SDS011;32591;48.102;11.772;2023-04-24T03:05:10;0.70;;;0.40;;
46116;SDS011;32591;48.102;11.772;2023-04-24T03:07:39;1.48;;;0.40;;
46116;SDS011;32591;48.102;11.772;2023-04-24T03:10:06;0.50;;;0.47;;
46116;SDS011;32591;48.102;11.772;2023-04-24T03:12:34;2.55;;;0.75;;
46116;SDS011;32591;48.102;11.772;2023-04-24T03:15:01;1.02;;;0.50;;
46116;SDS011;32591;48.102;11.772;2023-04-24T03:17:29;1.95;;;0.35;;
46116;SDS011;32591;48.102;11.772;2023-04-24T03:19:56;0.80;;;0.50;;
46116;SDS011;32591;48.102;11.772;2023-04-24T03:24:51;1.08;;;0.50;;
46116;SDS011;32591;48.102;11.772;2023-04-24T03:27:20;1.55;;;0.75;;
46116;SDS011;32591;48.102;11.772;2023-04-24T03:29:46;0.55;;;0.40;;
46116;SDS011;32591;48.102;11.772;2023-04-24T03:32:16;0.65;;;0.40;;
46116;SDS011;32591;48.102;11.772;2023-04-24T03:34:43;2.38;;;0.60;;
46116;SDS011;32591;48.102;11.772;2023-04-24T03:39:37;2.60;;;0.75;;
46116;SDS011;32591;48.102;11.772;2023-04-24T03:44:33;1.15;;;0.60;;
46116;SDS011;32591;48.102;11.772;2023-04-24T03:47:00;2.17;;;0.63;;
46116;SDS011;32591;48.102;11.772;2023-04-24T03:49:27;1.33;;;0.60;;
46116;SDS011;32591;48.102;11.772;2023-04-24T03:51:54;2.47;;;0.60;;
46116;SDS011;32591;48.102;11.772;2023-04-24T03:54:21;1.67;;;0.35;;
46116;SDS011;32591;48.102;11.772;2023-04-24T03:56:48;2.33;;;0.77;;
46116;SDS011;32591;48.102;11.772;2023-04-24T03:59:16;1.30;;;0.60;;
46116;SDS011;32591;48.102;11.772;2023-04-24T04:01:43;0.88;;;0.60;;
46116;SDS011;32591;48.102;11.772;2023-04-24T04:04:11;1.23;;;0.50;;
46116;SDS011;32591;48.102;11.772;2023-04-24T04:06:38;3.13;;;0.60;;
46116;SDS011;32591;48.102;11.772;2023-04-24T04:09:04;2.13;;;0.80;;
46116;SDS011;32591;48.102;11.772;2023-04-24T04:11:32;2.92;;;0.65;;
46116;SDS011;32591;48.102;11.772;2023-04-24T04:14:00;1.02;;;1.00;;
46116;SDS011;32591;48.102;11.772;2023-04-24T04:16:29;1.60;;;0.30;;
46116;SDS011;32591;48.102;11.772;2023-04-24T04:18:56;4.68;;;0.77;;
46116;SDS011;32591;48.102;11.772;2023-04-24T04:21:23;1.27;;;0.55;;
46116;SDS011;32591;48.102;11.772;2023-04-24T04:23:52;1.25;;;0.60;;
46116;SDS011;32591;48.102;11.772;2023-04-24T04:26:19;1.80;;;0.73;;
46116;SDS011;32591;48.102;11.772;2023-04-24T04:28:46;0.60;;;0.57;;
46116;SDS011;32591;48.102;11.772;2023-04-24T04:31:14;2.35;;;0.55;;
46116;SDS011;32591;48.102;11.772;2023-04-24T04:33:42;1.27;;;0.47;;
46116;SDS011;32591;48.102;11.772;2023-04-24T04:36:09;2.33;;;0.90;;
46116;SDS011;32591;48.102;11.772;2023-04-24T04:38:37;0.77;;;0.50;;
46116;SDS011;32591;48.102;11.772;2023-04-24T04:41:05;0.77;;;0.60;;
46116;SDS011;32591;48.102;11.772;2023-04-24T04:43:32;1.33;;;0.75;;
46116;SDS011;32591;48.102;11.772;2023-04-24T04:45:59;1.23;;;0.47;;
46116;SDS011;32591;48.102;11.772;2023-04-24T04:48:28;1.95;;;0.65;;
46116;SDS011;32591;48.102;11.772;2023-04-24T04:50:57;0.63;;;0.30;;
46116;SDS011;32591;48.102;11.772;2023-04-24T04:53:24;0.68;;;0.30;;
46116;SDS011;32591;48.102;11.772;2023-04-24T04:55:51;1.00;;;0.43;;
46116;SDS011;32591;48.102;11.772;2023-04-24T04:58:18;2.38;;;0.45;;
46116;SDS011;32591;48.102;11.772;2023-04-24T05:00:46;0.30;;;0.30;;
46116;SDS011;32591;48.102;11.772;2023-04-24T05:03:13;0.73;;;0.40;;
46116;SDS011;32591;48.102;11.772;2023-04-24T05:05:40;0.43;;;0.35;;
46116;SDS011;32591;48.102;11.772;2023-04-24T05:08:08;0.40;;;0.38;;
46116;SDS011;32591;48.102;11.772;2023-04-24T05:10:35;1.45;;;0.52;;
46116;SDS011;32591;48.102;11.772;2023-04-24T05:13:02;2.78;;;0.82;;
46116;SDS011;32591;48.102;11.772;2023-04-24T05:15:30;1.83;;;0.75;;
46116;SDS011;32591;48.102;11.772;2023-04-24T05:17:57;1.30;;;0.50;;
46116;SDS011;32591;48.102;11.772;2023-04-24T05:20:23;0.22;;;0.22;;
46116;SDS011;32591;48.102;11.772;2023-04-24T05:22:51;0.80;;;0.55;;
46116;SDS011;32591;48.102;11.772;2023-04-24T05:25:19;0.60;;;0.60;;
46116;SDS011;32591;48.102;11.772;2023-04-24T05:27:46;0.30;;;0.10;;
46116;SDS011;32591;48.102;11.772;2023-04-24T05:30:13;0.85;;;0.50;;
46116;SDS011;32591;48.102;11.772;2023-04-24T05:32:40;1.50;;;0.80;;
46116;SDS011;32591;48.102;11.772;2023-04-24T05:37:34;1.27;;;0.40;;
46116;SDS011;32591;48.102;11.772;2023-04-24T05:40:01;1.17;;;0.63;;
46116;SDS011;32591;48.102;11.772;2023-04-24T05:42:31;0.35;;;0.35;;
46116;SDS011;32591;48.102;11.772;2023-04-24T05:44:58;0.82;;;0.30;;
46116;SDS011;32591;48.102;11.772;2023-04-24T05:47:25;3.95;;;0.80;;
46116;SDS011;32591;48.102;11.772;2023-04-24T05:49:52;1.08;;;0.65;;
46116;SDS011;32591;48.102;11.772;2023-04-24T05:52:19;1.70;;;0.55;;
46116;SDS011;32591;48.102;11.772;2023-04-24T05:54:46;1.30;;;0.40;;
46116;SDS011;32591;48.102;11.772;2023-04-24T05:57:13;0.40;;;0.35;;
46116;SDS011;32591;48.102;11.772;2023-04-24T05:59:42;0.57;;;0.38;;
46116;SDS011;32591;48.102;11.772;2023-04-24T06:02:08;0.38;;;0.30;;
46116;SDS011;32591;48.102;11.772;2023-04-24T06:04:35;0.45;;;0.32;;
46116;SDS011;32591;48.102;11.772;2023-04-24T06:07:02;0.70;;;0.47;;
46116;SDS011;32591;48.102;11.772;2023-04-24T06:09:29;1.17;;;0.32;;
46116;SDS011;32591;48.102;11.772;2023-04-24T06:11:56;0.80;;;0.50;;
46116;SDS011;32591;48.102;11.772;2023-04-24T06:14:23;0.32;;;0.30;;
46116;SDS011;32591;48.102;11.772;2023-04-24T06:16:51;0.45;;;0.30;;
46116;SDS011;32591;48.102;11.772;2023-04-24T06:19:18;0.32;;;0.25;;
46116;SDS011;32591;48.102;11.772;2023-04-24T06:21:45;0.60;;;0.40;;
46116;SDS011;32591;48.102;11.772;2023-04-24T06:24:13;2.38;;;0.35;;
46116;SDS011;32591;48.102;11.772;2023-04-24T06:26:41;0.68;;;0.40;;
46116;SDS011;32591;48.102;11.772;2023-04-24T06:29:08;0.73;;;0.30;;
46116;SDS011;32591;48.102;11.772;2023-04-24T06:34:04;1.40;;;0.30;;
46116;SDS011;32591;48.102;11.772;2023-04-24T06:36:31;1.20;;;0.50;;
46116;SDS011;32591;48.102;11.772;2023-04-24T06:39:00;0.30;;;0.20;;
46116;SDS011;32591;48.102;11.772;2023-04-24T06:41:27;0.68;;;0.30;;
46116;SDS011;32591;48.102;11.772;2023-04-24T06:43:54;0.68;;;0.40;;
46116;SDS011;32591;48.102;11.772;2023-04-24T06:46:21;2.53;;;0.52;;
46116;SDS011;32591;48.102;11.772;2023-04-24T06:48:51;0.30;;;0.30;;
46116;SDS011;32591;48.102;11.772;2023-04-24T06:51:22;0.52;;;0.40;;
46116;SDS011;32591;48.102;11.772;2023-04-24T06:53:50;0.57;;;0.40;;
46116;SDS011;32591;48.102;11.772;2023-04-24T06:56:17;0.43;;;0.30;;
46116;SDS011;32591;48.102;11.772;2023-04-24T06:58:45;1.77;;;0.40;;
46116;SDS011;32591;48.102;11.772;2023-04-24T07:01:12;0.60;;;0.30;;
46116;SDS011;32591;48.102;11.772;2023-04-24T07:03:39;1.35;;;0.45;;
46116;SDS011;32591;48.102;11.772;2023-04-24T07:06:07;0.85;;;0.20;;
46116;SDS011;32591;48.102;11.772;2023-04-24T07:08:37;1.17;;;0.50;;
46116;SDS011;32591;48.102;11.772;2023-04-24T07:11:04;1.10;;;0.30;;
46116;SDS011;32591;48.102;11.772;2023-04-24T07:13:31;0.52;;;0.30;;
46116;SDS011;32591;48.102;11.772;2023-04-24T07:16:00;0.20;;;0.20;;
46116;SDS011;32591;48.102;11.772;2023-04-24T07:18:27;1.02;;;0.40;;
46116;SDS011;32591;48.102;11.772;2023-04-24T07:20:55;0.88;;;0.52;;
46116;SDS011;32591;48.102;11.772;2023-04-24T07:23:22;0.30;;;0.20;;
46116;SDS011;32591;48.102;11.772;2023-04-24T07:25:50;0.47;;;0.28;;
46116;SDS011;32591;48.102;11.772;2023-04-24T07:28:18;0.30;;;0.20;;
46116;SDS011;32591;48.102;11.772;2023-04-24T07:30:45;1.35;;;0.40;;
46116;SDS011;32591;48.102;11.772;2023-04-24T07:33:12;0.75;;;0.30;;
46116;SDS011;32591;48.102;11.772;2023-04-24T07:35:39;0.68;;;0.43;;
46116;SDS011;32591;48.102;11.772;2023-04-24T07:38:06;0.52;;;0.30;;
46116;SDS011;32591;48.102;11.772;2023-04-24T07:43:01;1.88;;;0.50;;
46116;SDS011;32591;48.102;11.772;2023-04-24T07:45:28;2.33;;;0.30;;
46116;SDS011;32591;48.102;11.772;2023-04-24T07:47:56;0.40;;;0.15;;
46116;SDS011;32591;48.102;11.772;2023-04-24T07:50:23;2.70;;;0.22;;
46116;SDS011;32591;48.102;11.772;2023-04-24T07:52:50;1.35;;;0.32;;
46116;SDS011;32591;48.102;11.772;2023-04-24T07:55:17;3.30;;;0.50;;
46116;SDS011;32591;48.102;11.772;2023-04-24T07:57:44;0.20;;;0.20;;
46116;SDS011;32591;48.102;11.772;2023-04-24T08:00:12;0.52;;;0.40;;
46116;SDS011;32591;48.102;11.772;2023-04-24T08:02:41;0.20;;;0.20;;
46116;SDS011;32591;48.102;11.772;2023-04-24T08:05:08;0.60;;;0.50;;
46116;SDS011;32591;48.102;11.772;2023-04-24T08:07:35;1.88;;;0.30;;
46116;SDS011;32591;48.102;11.772;2023-04-24T08:10:02;0.20;;;0.20;;
46116;SDS011;32591;48.102;11.772;2023-04-24T08:12:30;1.92;;;0.93;;
46116;SDS011;32591;48.102;11.772;2023-04-24T08:14:57;0.25;;;0.10;;
46116;SDS011;32591;48.102;11.772;2023-04-24T08:19:52;0.15;;;0.15;;
46116;SDS011;32591;48.102;11.772;2023-04-24T08:22:26;0.32;;;0.30;;
46116;SDS011;32591;48.102;11.772;2023-04-24T08:24:53;1.65;;;0.40;;
46116;SDS011;32591;48.102;11.772;2023-04-24T08:27:21;1.48;;;0.30;;
46116;SDS011;32591;48.102;11.772;2023-04-24T08:29:48;0.28;;;0.20;;
46116;SDS011;32591;48.102;11.772;2023-04-24T08:32:15;0.70;;;0.38;;
46116;SDS011;32591;48.102;11.772;2023-04-24T08:34:44;0.30;;;0.20;;
46116;SDS011;32591;48.102;11.772;2023-04-24T08:37:11;0.40;;;0.30;;
46116;SDS011;32591;48.102;11.772;2023-04-24T08:39:38;0.35;;;0.35;;
46116;SDS011;32591;48.102;11.772;2023-04-24T08:42:05;0.30;;;0.20;;
46116;SDS011;32591;48.102;11.772;2023-04-24T08:44:33;0.45;;;0.10;;
46116;SDS011;32591;48.102;11.772;2023-04-24T08:47:02;1.67;;;0.40;;
46116;SDS011;32591;48.102;11.772;2023-04-24T08:49:29;0.75;;;0.47;;
46116;SDS011;32591;48.102;11.772;2023-04-24T08:51:58;0.38;;;0.20;;
46116;SDS011;32591;48.102;11.772;2023-04-24T08:54:26;0.40;;;0.40;;
46116;SDS011;32591;48.102;11.772;2023-04-24T08:56:53;0.57;;;0.45;;
46116;SDS011;32591;48.102;11.772;2023-04-24T08:59:27;0.10;;;0.10;;
46116;SDS011;32591;48.102;11.772;2023-04-24T09:01:54;0.98;;;0.55;;
46116;SDS011;32591;48.102;11.772;2023-04-24T09:04:23;1.42;;;0.70;;
46116;SDS011;32591;48.102;11.772;2023-04-24T09:06:50;1.20;;;0.57;;
46116;SDS011;32591;48.102;11.772;2023-04-24T09:09:19;1.05;;;0.82;;
46116;SDS011;32591;48.102;11.772;2023-04-24T09:11:47;1.00;;;0.70;;
46116;SDS011;32591;48.102;11.772;2023-04-24T09:14:16;2.70;;;1.10;;
46116;SDS011;32591;48.102;11.772;2023-04-24T09:16:43;1.20;;;1.10;;
46116;SDS011;32591;48.102;11.772;2023-04-24T09:19:10;1.17;;;0.82;;
46116;SDS011;32591;48.102;11.772;2023-04-24T09:21:37;2.55;;;1.20;;
46116;SDS011;32591;48.102;11.772;2023-04-24T09:24:06;0.95;;;0.80;;
46116;SDS011;32591;48.102;11.772;2023-04-24T09:26:44;1.38;;;0.95;;
46116;SDS011;32591;48.102;11.772;2023-04-24T09:29:13;1.50;;;0.90;;
46116;SDS011;32591;48.102;11.772;2023-04-24T09:31:41;1.92;;;1.20;;
46116;SDS011;32591;48.102;11.772;2023-04-24T09:34:09;2.20;;;0.90;;
46116;SDS011;32591;48.102;11.772;2023-04-24T09:36:36;2.10;;;1.00;;
46116;SDS011;32591;48.102;11.772;2023-04-24T09:39:06;1.40;;;0.75;;
46116;SDS011;32591;48.102;11.772;2023-04-24T09:41:36;0.98;;;0.73;;
46116;SDS011;32591;48.102;11.772;2023-04-24T09:44:12;1.17;;;0.90;;
46116;SDS011;32591;48.102;11.772;2023-04-24T09:46:43;1.27;;;0.75;;
46116;SDS011;32591;48.102;11.772;2023-04-24T09:49:14;0.77;;;0.75;;
46116;SDS011;32591;48.102;11.772;2023-04-24T09:51:43;1.67;;;0.80;;
46116;SDS011;32591;48.102;11.772;2023-04-24T09:54:14;1.98;;;0.85;;
46116;SDS011;32591;48.102;11.772;2023-04-24T09:56:44;0.43;;;0.43;;
46116;SDS011;32591;48.102;11.772;2023-04-24T09:59:14;1.85;;;0.90;;
46116;SDS011;32591;48.102;11.772;2023-04-24T10:01:42;1.08;;;0.80;;
46116;SDS011;32591;48.102;11.772;2023-04-24T10:04:16;1.30;;;0.90;;
46116;SDS011;32591;48.102;11.772;2023-04-24T10:06:44;1.35;;;0.98;;
46116;SDS011;32591;48.102;11.772;2023-04-24T10:09:13;1.88;;;0.88;;
46116;SDS011;32591;48.102;11.772;2023-04-24T10:11:41;1.60;;;0.98;;
46116;SDS011;32591;48.102;11.772;2023-04-24T10:14:12;3.05;;;0.88;;
46116;SDS011;32591;48.102;11.772;2023-04-24T10:16:40;1.42;;;0.88;;
46116;SDS011;32591;48.102;11.772;2023-04-24T10:19:09;1.60;;;1.13;;
46116;SDS011;32591;48.102;11.772;2023-04-24T10:21:38;1.95;;;1.27;;
46116;SDS011;32591;48.102;11.772;2023-04-24T10:24:11;1.55;;;0.70;;
46116;SDS011;32591;48.102;11.772;2023-04-24T10:26:40;1.83;;;1.10;;
46116;SDS011;32591;48.102;11.772;2023-04-24T10:29:07;1.90;;;1.40;;
46116;SDS011;32591;48.102;11.772;2023-04-24T10:31:39;1.65;;;0.88;;
46116;SDS011;32591;48.102;11.772;2023-04-24T10:34:07;1.77;;;1.20;;
46116;SDS011;32591;48.102;11.772;2023-04-24T10:36:36;1.17;;;0.90;;
46116;SDS011;32591;48.102;11.772;2023-04-24T10:39:09;2.20;;;1.40;;
46116;SDS011;32591;48.102;11.772;2023-04-24T10:41:40;1.35;;;1.00;;
46116;SDS011;32591;48.102;11.772;2023-04-24T10:44:07;1.02;;;0.85;;
46116;SDS011;32591;48.102;11.772;2023-04-24T10:46:36;1.60;;;0.90;;
46116;SDS011;32591;48.102;11.772;2023-04-24T10:49:06;4.97;;;1.40;;
46116;SDS011;32591;48.102;11.772;2023-04-24T10:51:44;1.45;;;1.05;;
46116;SDS011;32591;48.102;11.772;2023-04-24T10:54:23;2.50;;;0.95;;
46116;SDS011;32591;48.102;11.772;2023-04-24T10:56:52;0.90;;;0.80;;
46116;SDS011;32591;48.102;11.772;2023-04-24T10:59:26;1.58;;;1.05;;
46116;SDS011;32591;48.102;11.772;2023-04-24T11:01:56;1.95;;;1.08;;
46116;SDS011;32591;48.102;11.772;2023-04-24T11:04:29;3.35;;;2.17;;
46116;SDS011;32591;48.102;11.772;2023-04-24T11:06:57;1.52;;;0.90;;
46116;SDS011;32591;48.102;11.772;2023-04-24T11:09:26;1.20;;;0.90;;
46116;SDS011;32591;48.102;11.772;2023-04-24T11:12:02;4.22;;;1.13;;
46116;SDS011;32591;48.102;11.772;2023-04-24T11:17:32;1.38;;;0.70;;
46116;SDS011;32591;48.102;11.772;2023-04-24T11:20:02;1.98;;;0.90;;
46116;SDS011;32591;48.102;11.772;2023-04-24T11:22:32;1.15;;;0.90;;
46116;SDS011;32591;48.102;11.772;2023-04-24T11:25:01;3.25;;;1.02;;
46116;SDS011;32591;48.102;11.772;2023-04-24T11:27:29;1.08;;;0.68;;
46116;SDS011;32591;48.102;11.772;2023-04-24T11:29:59;1.60;;;0.85;;
46116;SDS011;32591;48.102;11.772;2023-04-24T11:32:28;2.42;;;0.82;;
46116;SDS011;32591;48.102;11.772;2023-04-24T11:35:01;3.38;;;0.90;;
46116;SDS011;32591;48.102;11.772;2023-04-24T11:37:33;3.15;;;0.80;;
46116;SDS011;32591;48.102;11.772;2023-04-24T11:40:02;2.67;;;1.23;;
46116;SDS011;32591;48.102;11.772;2023-04-24T11:42:33;2.22;;;1.10;;
46116;SDS011;32591;48.102;11.772;2023-04-24T11:45:01;1.73;;;1.23;;
46116;SDS011;32591;48.102;11.772;2023-04-24T11:47:36;3.17;;;1.40;;
46116;SDS011;32591;48.102;11.772;2023-04-24T11:50:04;2.60;;;1.30;;
46116;SDS011;32591;48.102;11.772;2023-04-24T11:52:36;3.08;;;1.40;;
46116;SDS011;32591;48.102;11.772;2023-04-24T11:55:06;2.13;;;1.40;;
46116;SDS011;32591;48.102;11.772;2023-04-24T11:57:35;1.20;;;1.00;;
46116;SDS011;32591;48.102;11.772;2023-04-24T12:00:02;1.83;;;1.10;;
46116;SDS011;32591;48.102;11.772;2023-04-24T12:02:31;3.40;;;1.30;;
46116;SDS011;32591;48.102;11.772;2023-04-24T12:04:59;1.45;;;1.20;;
46116;SDS011;32591;48.102;11.772;2023-04-24T12:07:26;2.97;;;1.10;;
46116;SDS011;32591;48.102;11.772;2023-04-24T12:09:57;3.22;;;1.27;;
46116;SDS011;32591;48.102;11.772;2023-04-24T12:12:26;1.27;;;1.02;;
46116;SDS011;32591;48.102;11.772;2023-04-24T12:14:55;1.15;;;1.05;;
46116;SDS011;32591;48.102;11.772;2023-04-24T12:17:24;1.77;;;1.05;;
46116;SDS011;32591;48.102;11.772;2023-04-24T12:19:52;1.52;;;1.00;;
46116;SDS011;32591;48.102;11.772;2023-04-24T12:22:27;5.95;;;1.27;;
46116;SDS011;32591;48.102;11.772;2023-04-24T12:24:55;2.88;;;1.40;;
46116;SDS011;32591;48.102;11.772;2023-04-24T12:27:25;0.90;;;0.73;;
46116;SDS011;32591;48.102;11.772;2023-04-24T12:29:55;7.63;;;2.22;;
46116;SDS011;32591;48.102;11.772;2023-04-24T12:32:23;2.50;;;1.10;;
46116;SDS011;32591;48.102;11.772;2023-04-24T12:34:51;1.88;;;0.90;;
46116;SDS011;32591;48.102;11.772;2023-04-24T12:37:21;2.75;;;1.02;;
46116;SDS011;32591;48.102;11.772;2023-04-24T12:40:01;2.78;;;1.30;;
46116;SDS011;32591;48.102;11.772;2023-04-24T12:42:31;1.70;;;1.30;;
46116;SDS011;32591;48.102;11.772;2023-04-24T12:44:59;1.08;;;1.00;;
46116;SDS011;32591;48.102;11.772;2023-04-24T12:47:27;3.05;;;1.38;;
46116;SDS011;32591;48.102;11.772;2023-04-24T12:49:55;1.60;;;1.02;;
46116;SDS011;32591;48.102;11.772;2023-04-24T12:52:23;1.58;;;1.00;;
46116;SDS011;32591;48.102;11.772;2023-04-24T12:54:52;1.23;;;0.90;;
46116;SDS011;32591;48.102;11.772;2023-04-24T12:57:20;1.35;;;0.88;;
46116;SDS011;32591;48.102;11.772;2023-04-24T12:59:48;0.70;;;0.70;;
46116;SDS011;32591;48.102;11.772;2023-04-24T13:02:15;1.92;;;1.10;;
46116;SDS011;32591;48.102;11.772;2023-04-24T13:04:43;5.03;;;1.40;;
46116;SDS011;32591;48.102;11.772;2023-04-24T13:07:11;1.48;;;1.10;;
46116;SDS011;32591;48.102;11.772;2023-04-24T13:09:40;2.00;;;1.20;;
46116;SDS011;32591;48.102;11.772;2023-04-24T13:12:08;1.10;;;0.90;;
46116;SDS011;32591;48.102;11.772;2023-04-24T13:14:36;1.30;;;1.05;;
46116;SDS011;32591;48.102;11.772;2023-04-24T13:17:03;1.58;;;1.08;;
46116;SDS011;32591;48.102;11.772;2023-04-24T13:19:35;1.98;;;1.33;;
46116;SDS011;32591;48.102;11.772;2023-04-24T13:22:03;2.40;;;1.30;;
46116;SDS011;32591;48.102;11.772;2023-04-24T13:24:30;2.58;;;1.10;;
46116;SDS011;32591;48.102;11.772;2023-04-24T13:26:59;1.60;;;1.10;;
46116;SDS011;32591;48.102;11.772;2023-04-24T13:29:27;3.05;;;1.80;;
46116;SDS011;32591;48.102;11.772;2023-04-24T13:31:54;2.70;;;1.15;;
46116;SDS011;32591;48.102;11.772;2023-04-24T13:34:22;1.40;;;1.02;;
46116;SDS011;32591;48.102;11.772;2023-04-24T13:36:50;2.88;;;1.25;;
46116;SDS011;32591;48.102;11.772;2023-04-24T13:39:18;3.92;;;1.20;;
46116;SDS011;32591;48.102;11.772;2023-04-24T13:41:46;4.57;;;1.50;;
46116;SDS011;32591;48.102;11.772;2023-04-24T13:44:14;3.88;;;1.55;;
46116;SDS011;32591;48.102;11.772;2023-04-24T13:46:42;3.22;;;1.25;;
46116;SDS011;32591;48.102;11.772;2023-04-24T13:49:11;1.85;;;1.25;;
46116;SDS011;32591;48.102;11.772;2023-04-24T13:51:39;1.83;;;1.30;;
46116;SDS011;32591;48.102;11.772;2023-04-24T13:54:07;1.75;;;0.93;;
46116;SDS011;32591;48.102;11.772;2023-04-24T13:56:34;1.85;;;1.15;;
46116;SDS011;32591;48.102;11.772;2023-04-24T13:59:01;3.15;;;1.27;;
46116;SDS011;32591;48.102;11.772;2023-04-24T14:01:30;1.67;;;1.15;;
46116;SDS011;32591;48.102;11.772;2023-04-24T14:03:57;2.38;;;1.33;;
46116;SDS011;32591;48.102;11.772;2023-04-24T14:06:24;2.38;;;1.30;;
46116;SDS011;32591;48.102;11.772;2023-04-24T14:08:52;2.42;;;1.27;;
46116;SDS011;32591;48.102;11.772;2023-04-24T14:11:19;2.20;;;1.20;;
46116;SDS011;32591;48.102;11.772;2023-04-24T14:13:46;3.35;;;1.30;;
46116;SDS011;32591;48.102;11.772;2023-04-24T14:16:13;2.85;;;1.20;;
46116;SDS011;32591;48.102;11.772;2023-04-24T14:18:41;2.13;;;1.08;;
46116;SDS011;32591;48.102;11.772;2023-04-24T14:21:08;2.80;;;1.40;;
46116;SDS011;32591;48.102;11.772;2023-04-24T14:23:35;1.42;;;0.98;;
46116;SDS011;32591;48.102;11.772;2023-04-24T14:26:02;2.30;;;1.25;;
46116;SDS011;32591;48.102;11.772;2023-04-24T14:28:30;4.78;;;1.70;;
46116;SDS011;32591;48.102;11.772;2023-04-24T14:30:57;2.80;;;1.30;;
46116;SDS011;32591;48.102;11.772;2023-04-24T14:33:24;3.17;;;1.27;;
46116;SDS011;32591;48.102;11.772;2023-04-24T14:35:52;1.83;;;1.17;;
46116;SDS011;32591;48.102;11.772;2023-04-24T14:38:19;3.15;;;1.38;;
46116;SDS011;32591;48.102;11.772;2023-04-24T14:40:47;2.33;;;1.48;;
46116;SDS011;32591;48.102;11.772;2023-04-24T14:43:14;2.00;;;1.70;;
46116;SDS011;32591;48.102;11.772;2023-04-24T14:45:41;2.10;;;1.30;;
46116;SDS011;32591;48.102;11.772;2023-04-24T14:48:08;3.92;;;1.63;;
46116;SDS011;32591;48.102;11.772;2023-04-24T14:50:36;2.22;;;1.42;;
46116;SDS011;32591;48.102;11.772;2023-04-24T14:53:04;2.95;;;2.03;;
46116;SDS011;32591;48.102;11.772;2023-04-24T14:55:31;2.00;;;1.20;;
46116;SDS011;32591;48.102;11.772;2023-04-24T14:58:01;2.03;;;1.40;;
46116;SDS011;32591;48.102;11.772;2023-04-24T15:00:28;3.15;;;1.38;;